sensor_id;sensor_type;location;lat;lon;timestamp;pressure;altitude;pressure_sealevel;temperature;humidity
3812;BME280;1921;49.368;11.068;2023-01-29T00:02:22;98831.50;;;-1.23;75.48
3812;BME280;1921;49.368;11.068;2023-01-29T00:04:48;98785.84;;;-1.32;74.17
3812;BME280;1921;49.368;11.068;2023-01-29T00:07:14;98797.44;;;-1.43;72.89
3812;BME280;1921;49.368;11.068;2023-01-29T00:09:39;98816.03;;;-1.39;73.24
3812;BME280;1921;49.368;11.068;2023-01-29T00:12:06;98780.59;;;-1.47;72.77
3812;BME280;1921;49.368;11.068;2023-01-29T00:14:33;98782.41;;;-1.49;72.04
3812;BME280;1921;49.368;11.068;2023-01-29T00:16:59;98752.94;;;-1.57;72.22
3812;BME280;1921;49.368;11.068;2023-01-29T00:19:25;98801.06;;;-1.12;72.23
3812;BME280;1921;49.368;11.068;2023-01-29T00:21:51;98800.31;;;-1.49;72.39
3812;BME280;1921;49.368;11.068;2023-01-29T00:24:16;98772.50;;;-1.93;74.48
3812;BME280;1921;49.368;11.068;2023-01-29T00:26:42;98735.31;;;-1.81;75.66
3812;BME280;1921;49.368;11.068;2023-01-29T00:29:08;98771.56;;;-1.19;72.84
3812;BME280;1921;49.368;11.068;2023-01-29T00:31:34;98778.84;;;-0.94;71.91
3812;BME280;1921;49.368;11.068;2023-01-29T00:34:00;98793.59;;;-0.65;73.19
3812;BME280;1921;49.368;11.068;2023-01-29T00:36:26;98786.09;;;-0.68;69.11
3812;BME280;1921;49.368;11.068;2023-01-29T00:38:56;98784.97;;;-0.79;70.39
3812;BME280;1921;49.368;11.068;2023-01-29T00:41:30;98796.34;;;-0.52;71.91
3812;BME280;1921;49.368;11.068;2023-01-29T00:44:15;98770.56;;;-0.82;69.87
3812;BME280;1921;49.368;11.068;2023-01-29T00:46:59;98737.47;;;-1.37;69.57
3812;BME280;1921;49.368;11.068;2023-01-29T00:49:25;98735.44;;;-1.48;71.34
3812;BME280;1921;49.368;11.068;2023-01-29T00:51:51;98747.84;;;-1.57;71.81
3812;BME280;1921;49.368;11.068;2023-01-29T00:54:35;98755.31;;;-1.53;71.19
3812;BME280;1921;49.368;11.068;2023-01-29T00:57:02;98796.13;;;-1.15;71.93
3812;BME280;1921;49.368;11.068;2023-01-29T00:59:29;98759.97;;;-1.61;72.29
3812;BME280;1921;49.368;11.068;2023-01-29T01:01:54;98752.28;;;-1.44;71.67
3812;BME280;1921;49.368;11.068;2023-01-29T01:04:39;98731.59;;;-1.56;71.62
3812;BME280;1921;49.368;11.068;2023-01-29T01:07:05;98736.19;;;-1.46;71.11
3812;BME280;1921;49.368;11.068;2023-01-29T01:09:31;98782.84;;;-1.06;70.55
3812;BME280;1921;49.368;11.068;2023-01-29T01:12:20;98801.06;;;-0.77;71.15
3812;BME280;1921;49.368;11.068;2023-01-29T01:14:47;98805.69;;;-0.51;71.86
3812;BME280;1921;49.368;11.068;2023-01-29T01:17:13;98725.88;;;-1.10;69.15
3812;BME280;1921;49.368;11.068;2023-01-29T01:19:39;98774.72;;;-0.97;69.79
3812;BME280;1921;49.368;11.068;2023-01-29T01:22:05;98749.22;;;-2.24;74.18
3812;BME280;1921;49.368;11.068;2023-01-29T01:24:31;98787.50;;;-2.23;76.56
3812;BME280;1921;49.368;11.068;2023-01-29T01:26:57;98724.59;;;-2.25;74.80
3812;BME280;1921;49.368;11.068;2023-01-29T01:29:22;98719.91;;;-2.15;74.55
3812;BME280;1921;49.368;11.068;2023-01-29T01:31:49;98719.91;;;-2.53;75.56
3812;BME280;1921;49.368;11.068;2023-01-29T01:34:15;98792.31;;;-1.79;74.44
3812;BME280;1921;49.368;11.068;2023-01-29T01:36:40;98757.44;;;-1.80;73.98
3812;BME280;1921;49.368;11.068;2023-01-29T01:39:06;98743.00;;;-1.64;72.61
3812;BME280;1921;49.368;11.068;2023-01-29T01:41:32;98752.22;;;-1.59;72.82
3812;BME280;1921;49.368;11.068;2023-01-29T01:44:01;98701.03;;;-1.77;72.33
3812;BME280;1921;49.368;11.068;2023-01-29T01:46:34;98736.59;;;-1.36;71.19
3812;BME280;1921;49.368;11.068;2023-01-29T01:49:15;98750.88;;;-1.32;71.01
3812;BME280;1921;49.368;11.068;2023-01-29T01:51:47;98757.34;;;-1.42;71.28
3812;BME280;1921;49.368;11.068;2023-01-29T01:54:25;98757.03;;;-1.19;70.77
3812;BME280;1921;49.368;11.068;2023-01-29T01:57:07;98752.47;;;-1.29;71.24
3812;BME280;1921;49.368;11.068;2023-01-29T01:59:37;98770.00;;;-1.04;70.72
3812;BME280;1921;49.368;11.068;2023-01-29T02:02:05;98724.97;;;-1.26;69.76
3812;BME280;1921;49.368;11.068;2023-01-29T02:04:50;98755.25;;;-1.34;70.17
3812;BME280;1921;49.368;11.068;2023-01-29T02:07:41;98793.16;;;-1.08;71.18
3812;BME280;1921;49.368;11.068;2023-01-29T02:10:27;98798.44;;;-0.93;70.38
3812;BME280;1921;49.368;11.068;2023-01-29T02:12:54;98799.41;;;-1.13;69.86
3812;BME280;1921;49.368;11.068;2023-01-29T02:15:19;98723.88;;;-1.55;70.65
3812;BME280;1921;49.368;11.068;2023-01-29T02:17:45;98752.78;;;-1.72;71.81
3812;BME280;1921;49.368;11.068;2023-01-29T02:20:30;98760.53;;;-1.56;71.58
3812;BME280;1921;49.368;11.068;2023-01-29T02:28:25;98809.00;;;-1.17;70.63
3812;BME280;1921;49.368;11.068;2023-01-29T02:31:11;98804.00;;;-1.02;71.02
3812;BME280;1921;49.368;11.068;2023-01-29T02:37:11;98803.34;;;-0.89;69.52
3812;BME280;1921;49.368;11.068;2023-01-29T02:39:50;98799.63;;;-1.35;70.95
3812;BME280;1921;49.368;11.068;2023-01-29T02:42:32;98804.81;;;-1.54;71.59
3812;BME280;1921;49.368;11.068;2023-01-29T02:45:17;98772.81;;;-1.81;73.45
3812;BME280;1921;49.368;11.068;2023-01-29T02:47:56;98741.66;;;-1.71;72.18
3812;BME280;1921;49.368;11.068;2023-01-29T02:53:17;98726.19;;;-1.50;70.27
3812;BME280;1921;49.368;11.068;2023-01-29T02:55:54;98788.50;;;-1.34;70.80
3812;BME280;1921;49.368;11.068;2023-01-29T02:58:32;98795.38;;;-2.08;73.92
3812;BME280;1921;49.368;11.068;2023-01-29T03:04:10;98745.03;;;-2.25;75.25
3812;BME280;1921;49.368;11.068;2023-01-29T03:06:42;98721.91;;;-2.22;73.14
3812;BME280;1921;49.368;11.068;2023-01-29T03:09:20;98736.25;;;-2.01;73.04
3812;BME280;1921;49.368;11.068;2023-01-29T03:12:02;98777.91;;;-1.80;72.44
3812;BME280;1921;49.368;11.068;2023-01-29T03:14:46;98792.97;;;-1.56;73.22
3812;BME280;1921;49.368;11.068;2023-01-29T03:17:41;98736.63;;;-1.72;71.65
3812;BME280;1921;49.368;11.068;2023-01-29T03:20:14;98817.25;;;-1.65;72.02
3812;BME280;1921;49.368;11.068;2023-01-29T03:22:47;98743.97;;;-2.59;74.21
3812;BME280;1921;49.368;11.068;2023-01-29T03:25:17;98799.19;;;-2.56;75.92
3812;BME280;1921;49.368;11.068;2023-01-29T03:28:05;98817.34;;;-2.23;75.55
3812;BME280;1921;49.368;11.068;2023-01-29T03:30:55;98754.41;;;-2.26;74.11
3812;BME280;1921;49.368;11.068;2023-01-29T03:33:53;98812.41;;;-1.71;73.12
3812;BME280;1921;49.368;11.068;2023-01-29T03:36:32;98755.84;;;-1.82;73.65
3812;BME280;1921;49.368;11.068;2023-01-29T03:39:05;98719.72;;;-2.30;72.21
3812;BME280;1921;49.368;11.068;2023-01-29T03:47:31;98796.84;;;-2.81;78.17
3812;BME280;1921;49.368;11.068;2023-01-29T03:53:46;98806.03;;;-2.77;77.28
3812;BME280;1921;49.368;11.068;2023-01-29T03:59:54;98749.47;;;-3.07;76.71
3812;BME280;1921;49.368;11.068;2023-01-29T04:02:08;98763.50;;;-2.58;76.13
3812;BME280;1921;49.368;11.068;2023-01-29T04:04:38;98744.03;;;-2.79;75.73
3812;BME280;1921;49.368;11.068;2023-01-29T04:07:15;98789.63;;;-2.92;76.40
3812;BME280;1921;49.368;11.068;2023-01-29T04:09:53;98798.19;;;-3.13;78.32
3812;BME280;1921;49.368;11.068;2023-01-29T04:12:28;98815.13;;;-3.12;79.25
3812;BME280;1921;49.368;11.068;2023-01-29T04:14:57;98796.09;;;-3.46;78.60
3812;BME280;1921;49.368;11.068;2023-01-29T04:17:36;98751.03;;;-3.67;79.47
3812;BME280;1921;49.368;11.068;2023-01-29T04:20:04;98803.44;;;-3.38;79.56
3812;BME280;1921;49.368;11.068;2023-01-29T04:22:38;98790.66;;;-3.59;79.93
3812;BME280;1921;49.368;11.068;2023-01-29T04:25:11;98803.50;;;-3.40;81.17
3812;BME280;1921;49.368;11.068;2023-01-29T04:28:06;98840.75;;;-2.53;80.67
3812;BME280;1921;49.368;11.068;2023-01-29T04:33:17;98841.56;;;-2.13;76.02
3812;BME280;1921;49.368;11.068;2023-01-29T04:44:44;98817.81;;;-1.96;75.44
3812;BME280;1921;49.368;11.068;2023-01-29T04:50:37;98813.75;;;-1.45;73.02
3812;BME280;1921;49.368;11.068;2023-01-29T04:53:59;98823.31;;;-1.31;72.18
3812;BME280;1921;49.368;11.068;2023-01-29T04:56:13;98835.94;;;-1.46;71.46
3812;BME280;1921;49.368;11.068;2023-01-29T04:58:48;98841.84;;;-1.63;72.45
3812;BME280;1921;49.368;11.068;2023-01-29T05:01:18;98777.31;;;-1.68;72.46
3812;BME280;1921;49.368;11.068;2023-01-29T05:03:49;98784.09;;;-1.49;71.61
3812;BME280;1921;49.368;11.068;2023-01-29T05:06:18;98830.81;;;-1.82;71.87
3812;BME280;1921;49.368;11.068;2023-01-29T05:08:46;98815.25;;;-1.77;71.14
3812;BME280;1921;49.368;11.068;2023-01-29T05:11:14;98779.41;;;-1.95;71.69
3812;BME280;1921;49.368;11.068;2023-01-29T05:13:42;98768.22;;;-1.73;70.84
3812;BME280;1921;49.368;11.068;2023-01-29T05:16:21;98757.09;;;-1.55;72.58
3812;BME280;1921;49.368;11.068;2023-01-29T05:18:48;98787.69;;;-1.17;72.25
3812;BME280;1921;49.368;11.068;2023-01-29T05:21:14;98768.47;;;-1.26;70.25
3812;BME280;1921;49.368;11.068;2023-01-29T05:23:40;98748.56;;;-1.37;69.11
3812;BME280;1921;49.368;11.068;2023-01-29T05:26:20;98779.25;;;-1.19;69.75
3812;BME280;1921;49.368;11.068;2023-01-29T05:29:04;98747.19;;;-1.26;69.05
3812;BME280;1921;49.368;11.068;2023-01-29T05:31:30;98757.84;;;-1.18;69.50
3812;BME280;1921;49.368;11.068;2023-01-29T05:33:55;98797.47;;;-0.91;69.02
3812;BME280;1921;49.368;11.068;2023-01-29T05:36:21;98739.06;;;-1.17;69.36
3812;BME280;1921;49.368;11.068;2023-01-29T05:38:47;98728.38;;;-1.43;68.04
3812;BME280;1921;49.368;11.068;2023-01-29T05:41:12;98775.56;;;-0.96;69.15
3812;BME280;1921;49.368;11.068;2023-01-29T05:43:38;98769.22;;;-0.89;69.06
3812;BME280;1921;49.368;11.068;2023-01-29T05:46:04;98727.44;;;-1.07;69.24
3812;BME280;1921;49.368;11.068;2023-01-29T05:48:30;98729.78;;;-1.02;69.52
3812;BME280;1921;49.368;11.068;2023-01-29T05:51:01;98727.16;;;-1.01;68.98
3812;BME280;1921;49.368;11.068;2023-01-29T05:53:28;98640.28;;;-1.54;68.79
3812;BME280;1921;49.368;11.068;2023-01-29T05:55:54;98750.59;;;-0.75;69.14
3812;BME280;1921;49.368;11.068;2023-01-29T05:58:22;98701.84;;;-1.07;68.45
3812;BME280;1921;49.368;11.068;2023-01-29T06:00:48;98744.81;;;-0.79;67.53
3812;BME280;1921;49.368;11.068;2023-01-29T06:03:14;98719.16;;;-0.95;67.58
3812;BME280;1921;49.368;11.068;2023-01-29T06:05:40;98710.56;;;-0.94;68.66
3812;BME280;1921;49.368;11.068;2023-01-29T06:08:07;98749.53;;;-0.71;68.68
3812;BME280;1921;49.368;11.068;2023-01-29T06:10:33;98723.50;;;-0.79;67.95
3812;BME280;1921;49.368;11.068;2023-01-29T06:12:59;98707.69;;;-0.88;68.03
3812;BME280;1921;49.368;11.068;2023-01-29T06:15:25;98721.00;;;-0.81;68.18
3812;BME280;1921;49.368;11.068;2023-01-29T06:17:53;98748.34;;;-0.82;66.53
3812;BME280;1921;49.368;11.068;2023-01-29T06:20:19;98720.97;;;-0.97;66.68
3812;BME280;1921;49.368;11.068;2023-01-29T06:22:45;98698.19;;;-1.19;66.87
3812;BME280;1921;49.368;11.068;2023-01-29T06:25:10;98779.69;;;-0.76;67.02
3812;BME280;1921;49.368;11.068;2023-01-29T06:27:36;98761.41;;;-0.86;67.63
3812;BME280;1921;49.368;11.068;2023-01-29T06:30:04;98700.81;;;-1.20;68.21
3812;BME280;1921;49.368;11.068;2023-01-29T06:32:30;98721.41;;;-1.06;67.85
3812;BME280;1921;49.368;11.068;2023-01-29T06:34:56;98711.97;;;-1.21;67.37
3812;BME280;1921;49.368;11.068;2023-01-29T06:37:22;98744.16;;;-1.00;67.17
3812;BME280;1921;49.368;11.068;2023-01-29T06:39:47;98778.44;;;-0.69;68.22
3812;BME280;1921;49.368;11.068;2023-01-29T06:42:13;98761.84;;;-0.78;68.14
3812;BME280;1921;49.368;11.068;2023-01-29T06:44:39;98712.91;;;-1.06;67.94
3812;BME280;1921;49.368;11.068;2023-01-29T06:47:04;98714.22;;;-1.15;66.88
3812;BME280;1921;49.368;11.068;2023-01-29T06:49:30;98687.16;;;-1.37;68.05
3812;BME280;1921;49.368;11.068;2023-01-29T06:51:56;98704.28;;;-1.39;66.43
3812;BME280;1921;49.368;11.068;2023-01-29T06:54:22;98698.88;;;-1.32;66.47
3812;BME280;1921;49.368;11.068;2023-01-29T06:56:48;98727.53;;;-1.26;68.34
3812;BME280;1921;49.368;11.068;2023-01-29T06:59:13;98747.78;;;-1.21;67.80
3812;BME280;1921;49.368;11.068;2023-01-29T07:01:40;98760.28;;;-1.32;68.13
3812;BME280;1921;49.368;11.068;2023-01-29T07:04:07;98748.06;;;-1.45;67.48
3812;BME280;1921;49.368;11.068;2023-01-29T07:06:33;98778.41;;;-1.20;67.90
3812;BME280;1921;49.368;11.068;2023-01-29T07:08:59;98786.09;;;-1.20;67.82
3812;BME280;1921;49.368;11.068;2023-01-29T07:11:24;98794.28;;;-1.13;67.49
3812;BME280;1921;49.368;11.068;2023-01-29T07:13:50;98745.91;;;-1.35;67.82
3812;BME280;1921;49.368;11.068;2023-01-29T07:16:16;98793.09;;;-1.06;67.38
3812;BME280;1921;49.368;11.068;2023-01-29T07:18:43;98759.00;;;-1.24;67.58
3812;BME280;1921;49.368;11.068;2023-01-29T07:21:09;98784.44;;;-1.03;68.56
3812;BME280;1921;49.368;11.068;2023-01-29T07:23:35;98816.81;;;-0.68;66.87
3812;BME280;1921;49.368;11.068;2023-01-29T07:26:05;98758.84;;;-1.03;66.48
3812;BME280;1921;49.368;11.068;2023-01-29T07:28:34;98809.44;;;-0.74;66.65
3812;BME280;1921;49.368;11.068;2023-01-29T07:31:00;98797.19;;;-0.69;68.53
3812;BME280;1921;49.368;11.068;2023-01-29T07:33:25;98793.81;;;-0.69;67.27
3812;BME280;1921;49.368;11.068;2023-01-29T07:35:52;98755.97;;;-0.80;68.00
3812;BME280;1921;49.368;11.068;2023-01-29T07:38:17;98787.47;;;-0.62;66.59
3812;BME280;1921;49.368;11.068;2023-01-29T07:40:43;98808.63;;;-0.41;65.61
3812;BME280;1921;49.368;11.068;2023-01-29T07:43:09;98799.44;;;-0.45;65.95
3812;BME280;1921;49.368;11.068;2023-01-29T07:45:37;98807.81;;;-0.42;67.01
3812;BME280;1921;49.368;11.068;2023-01-29T07:48:05;98749.06;;;-0.62;67.70
3812;BME280;1921;49.368;11.068;2023-01-29T07:50:33;98821.16;;;-0.52;64.51
3812;BME280;1921;49.368;11.068;2023-01-29T07:52:59;98777.41;;;-0.65;65.28
3812;BME280;1921;49.368;11.068;2023-01-29T07:55:25;98744.72;;;-0.77;65.53
3812;BME280;1921;49.368;11.068;2023-01-29T07:58:02;98757.72;;;-1.86;66.61
3812;BME280;1921;49.368;11.068;2023-01-29T08:00:29;98762.28;;;-2.11;68.79
3812;BME280;1921;49.368;11.068;2023-01-29T08:03:11;98812.47;;;-1.18;68.23
3812;BME280;1921;49.368;11.068;2023-01-29T08:05:37;98792.47;;;-0.94;68.55
3812;BME280;1921;49.368;11.068;2023-01-29T08:08:03;98766.31;;;-1.16;66.69
3812;BME280;1921;49.368;11.068;2023-01-29T08:10:29;98796.19;;;-0.99;65.85
3812;BME280;1921;49.368;11.068;2023-01-29T08:13:00;98836.59;;;-1.06;67.07
3812;BME280;1921;49.368;11.068;2023-01-29T08:15:27;98836.78;;;-0.74;67.26
3812;BME280;1921;49.368;11.068;2023-01-29T08:17:53;98807.97;;;-0.62;66.38
3812;BME280;1921;49.368;11.068;2023-01-29T08:20:19;98818.91;;;-0.59;65.42
3812;BME280;1921;49.368;11.068;2023-01-29T08:22:45;98785.94;;;-0.82;65.06
3812;BME280;1921;49.368;11.068;2023-01-29T08:25:12;98783.75;;;-0.72;66.03
3812;BME280;1921;49.368;11.068;2023-01-29T08:27:38;98840.22;;;-0.58;65.06
3812;BME280;1921;49.368;11.068;2023-01-29T08:30:05;98794.38;;;-0.97;65.83
3812;BME280;1921;49.368;11.068;2023-01-29T08:32:31;98816.03;;;-0.70;66.09
3812;BME280;1921;49.368;11.068;2023-01-29T08:34:57;98833.28;;;-0.56;65.75
3812;BME280;1921;49.368;11.068;2023-01-29T08:37:22;98822.81;;;-0.51;64.94
3812;BME280;1921;49.368;11.068;2023-01-29T08:39:48;98839.47;;;-0.77;65.94
3812;BME280;1921;49.368;11.068;2023-01-29T08:42:14;98855.78;;;-0.45;64.66
3812;BME280;1921;49.368;11.068;2023-01-29T08:44:39;98814.81;;;-0.45;65.30
3812;BME280;1921;49.368;11.068;2023-01-29T08:47:05;98855.44;;;-0.05;64.50
3812;BME280;1921;49.368;11.068;2023-01-29T08:49:31;98787.06;;;-0.37;64.92
3812;BME280;1921;49.368;11.068;2023-01-29T08:51:56;98765.91;;;-0.41;64.20
3812;BME280;1921;49.368;11.068;2023-01-29T08:54:23;98851.56;;;0.20;64.15
3812;BME280;1921;49.368;11.068;2023-01-29T08:56:49;98807.34;;;-0.01;62.61
3812;BME280;1921;49.368;11.068;2023-01-29T08:59:15;98821.72;;;0.19;63.21
3812;BME280;1921;49.368;11.068;2023-01-29T09:01:41;98844.19;;;0.30;61.91
3812;BME280;1921;49.368;11.068;2023-01-29T09:04:07;98778.69;;;0.08;63.23
3812;BME280;1921;49.368;11.068;2023-01-29T09:06:33;98816.72;;;0.63;61.79
3812;BME280;1921;49.368;11.068;2023-01-29T09:08:59;98791.78;;;0.65;60.61
3812;BME280;1921;49.368;11.068;2023-01-29T09:11:25;98784.81;;;0.67;60.33
3812;BME280;1921;49.368;11.068;2023-01-29T09:13:51;98826.03;;;0.80;59.78
3812;BME280;1921;49.368;11.068;2023-01-29T09:16:16;98833.03;;;1.22;60.99
3812;BME280;1921;49.368;11.068;2023-01-29T09:18:42;98803.91;;;1.38;61.04
3812;BME280;1921;49.368;11.068;2023-01-29T09:21:08;98789.38;;;1.37;58.22
3812;BME280;1921;49.368;11.068;2023-01-29T09:23:34;98787.19;;;1.45;58.61
3812;BME280;1921;49.368;11.068;2023-01-29T09:25:59;98809.25;;;1.63;59.09
3812;BME280;1921;49.368;11.068;2023-01-29T09:28:25;98861.94;;;1.99;59.15
3812;BME280;1921;49.368;11.068;2023-01-29T09:30:51;98810.88;;;1.93;57.34
3812;BME280;1921;49.368;11.068;2023-01-29T09:33:17;98847.06;;;2.18;56.66
3812;BME280;1921;49.368;11.068;2023-01-29T09:35:43;98806.19;;;1.85;56.53
3812;BME280;1921;49.368;11.068;2023-01-29T09:38:11;98793.78;;;1.92;56.81
3812;BME280;1921;49.368;11.068;2023-01-29T09:41:02;98836.47;;;2.37;57.36
3812;BME280;1921;49.368;11.068;2023-01-29T09:43:45;98816.59;;;2.39;57.93
3812;BME280;1921;49.368;11.068;2023-01-29T09:46:26;98771.78;;;2.41;58.81
3812;BME280;1921;49.368;11.068;2023-01-29T09:49:17;98824.28;;;1.55;57.27
3812;BME280;1921;49.368;11.068;2023-01-29T09:51:51;98813.28;;;1.81;58.09
3812;BME280;1921;49.368;11.068;2023-01-29T09:54:43;98812.16;;;2.00;57.90
3812;BME280;1921;49.368;11.068;2023-01-29T09:57:19;98782.03;;;2.02;57.70
3812;BME280;1921;49.368;11.068;2023-01-29T09:59:48;98766.25;;;1.37;56.79
3812;BME280;1921;49.368;11.068;2023-01-29T10:05:21;98820.78;;;2.13;58.41
3812;BME280;1921;49.368;11.068;2023-01-29T10:08:54;98812.53;;;2.35;57.17
3812;BME280;1921;49.368;11.068;2023-01-29T10:11:37;98807.06;;;2.27;56.13
3812;BME280;1921;49.368;11.068;2023-01-29T10:14:24;98803.22;;;2.47;56.95
3812;BME280;1921;49.368;11.068;2023-01-29T10:20:27;98816.59;;;2.66;56.61
3812;BME280;1921;49.368;11.068;2023-01-29T10:25:46;98813.28;;;3.04;55.66
3812;BME280;1921;49.368;11.068;2023-01-29T10:28:19;98821.41;;;2.97;54.56
3812;BME280;1921;49.368;11.068;2023-01-29T10:30:53;98806.03;;;3.23;56.37
3812;BME280;1921;49.368;11.068;2023-01-29T10:33:36;98794.78;;;3.24;51.65
3812;BME280;1921;49.368;11.068;2023-01-29T10:36:09;98752.97;;;2.81;54.29
3812;BME280;1921;49.368;11.068;2023-01-29T10:38:49;98802.41;;;3.13;54.81
3812;BME280;1921;49.368;11.068;2023-01-29T10:41:29;98765.31;;;2.76;54.22
3812;BME280;1921;49.368;11.068;2023-01-29T10:53:17;98767.00;;;2.50;53.64
3812;BME280;1921;49.368;11.068;2023-01-29T10:55:58;98842.22;;;2.40;55.21
3812;BME280;1921;49.368;11.068;2023-01-29T10:58:53;98687.22;;;1.54;55.31
3812;BME280;1921;49.368;11.068;2023-01-29T11:01:19;98752.28;;;1.83;54.22
3812;BME280;1921;49.368;11.068;2023-01-29T11:03:45;98810.00;;;2.21;54.44
3812;BME280;1921;49.368;11.068;2023-01-29T11:06:29;98810.34;;;2.29;55.30
3812;BME280;1921;49.368;11.068;2023-01-29T11:09:13;98735.22;;;2.09;57.84
3812;BME280;1921;49.368;11.068;2023-01-29T11:11:53;98731.91;;;2.49;56.55
3812;BME280;1921;49.368;11.068;2023-01-29T11:14:30;98776.09;;;2.95;56.31
3812;BME280;1921;49.368;11.068;2023-01-29T11:16:59;98679.09;;;2.68;55.59
3812;BME280;1921;49.368;11.068;2023-01-29T11:19:41;98731.16;;;3.12;54.31
3812;BME280;1921;49.368;11.068;2023-01-29T11:22:15;98723.97;;;3.30;54.87
3812;BME280;1921;49.368;11.068;2023-01-29T11:24:41;98726.19;;;3.47;53.93
3812;BME280;1921;49.368;11.068;2023-01-29T11:27:22;98700.72;;;2.66;52.64
3812;BME280;1921;49.368;11.068;2023-01-29T11:29:49;98705.50;;;2.45;53.39
3812;BME280;1921;49.368;11.068;2023-01-29T11:37:39;98690.41;;;2.66;55.37
3812;BME280;1921;49.368;11.068;2023-01-29T11:42:47;98664.38;;;2.83;53.58
3812;BME280;1921;49.368;11.068;2023-01-29T11:45:31;98671.16;;;2.97;54.80
3812;BME280;1921;49.368;11.068;2023-01-29T11:47:59;98681.47;;;3.22;55.62
3812;BME280;1921;49.368;11.068;2023-01-29T11:50:28;98711.06;;;3.42;54.56
3812;BME280;1921;49.368;11.068;2023-01-29T11:52:55;98669.09;;;3.15;53.94
3812;BME280;1921;49.368;11.068;2023-01-29T11:55:30;98651.34;;;3.36;55.65
3812;BME280;1921;49.368;11.068;2023-01-29T11:58:17;98652.22;;;3.84;54.43
3812;BME280;1921;49.368;11.068;2023-01-29T12:00:48;98637.75;;;3.94;51.49
3812;BME280;1921;49.368;11.068;2023-01-29T12:03:23;98656.19;;;3.77;52.15
3812;BME280;1921;49.368;11.068;2023-01-29T12:06:01;98640.59;;;4.02;53.21
3812;BME280;1921;49.368;11.068;2023-01-29T12:08:36;98665.50;;;3.17;52.71
3812;BME280;1921;49.368;11.068;2023-01-29T12:11:26;98638.75;;;1.89;55.34
3812;BME280;1921;49.368;11.068;2023-01-29T12:13:56;98632.34;;;2.62;54.66
3812;BME280;1921;49.368;11.068;2023-01-29T12:17:14;98675.13;;;1.83;57.42
3812;BME280;1921;49.368;11.068;2023-01-29T12:20:01;98624.75;;;2.33;56.31
3812;BME280;1921;49.368;11.068;2023-01-29T12:23:03;98641.97;;;1.93;55.50
3812;BME280;1921;49.368;11.068;2023-01-29T12:25:56;98662.88;;;2.54;57.22
3812;BME280;1921;49.368;11.068;2023-01-29T12:34:21;98592.88;;;2.74;56.78
3812;BME280;1921;49.368;11.068;2023-01-29T12:37:04;98641.06;;;3.23;56.96
3812;BME280;1921;49.368;11.068;2023-01-29T12:39:35;98621.44;;;1.38;58.27
3812;BME280;1921;49.368;11.068;2023-01-29T12:42:09;98623.69;;;2.23;58.09
3812;BME280;1921;49.368;11.068;2023-01-29T12:44:45;98633.97;;;3.14;57.15
3812;BME280;1921;49.368;11.068;2023-01-29T12:47:19;98632.97;;;3.77;55.59
3812;BME280;1921;49.368;11.068;2023-01-29T12:49:52;98623.44;;;3.54;56.38
3812;BME280;1921;49.368;11.068;2023-01-29T12:55:37;98553.50;;;4.17;53.23
3812;BME280;1921;49.368;11.068;2023-01-29T12:58:24;98595.78;;;4.03;51.94
3812;BME280;1921;49.368;11.068;2023-01-29T13:00:56;98513.78;;;3.37;53.80
3812;BME280;1921;49.368;11.068;2023-01-29T13:03:32;98573.16;;;4.42;53.71
3812;BME280;1921;49.368;11.068;2023-01-29T13:06:07;98580.09;;;4.64;51.39
3812;BME280;1921;49.368;11.068;2023-01-29T13:11:39;98591.25;;;4.76;50.19
3812;BME280;1921;49.368;11.068;2023-01-29T13:14:43;98546.88;;;4.71;52.58
3812;BME280;1921;49.368;11.068;2023-01-29T13:19:57;98543.41;;;5.70;50.18
3812;BME280;1921;49.368;11.068;2023-01-29T13:22:31;98544.56;;;5.45;48.59
3812;BME280;1921;49.368;11.068;2023-01-29T13:24:58;98544.13;;;5.28;49.87
3812;BME280;1921;49.368;11.068;2023-01-29T13:27:30;98598.41;;;5.51;50.62
3812;BME280;1921;49.368;11.068;2023-01-29T13:29:56;98563.28;;;5.26;50.29
3812;BME280;1921;49.368;11.068;2023-01-29T13:32:31;98564.16;;;5.04;50.88
3812;BME280;1921;49.368;11.068;2023-01-29T13:35:12;98548.88;;;4.67;52.03
3812;BME280;1921;49.368;11.068;2023-01-29T13:37:52;98550.38;;;4.36;50.95
3812;BME280;1921;49.368;11.068;2023-01-29T13:40:29;98578.78;;;4.58;51.60
3812;BME280;1921;49.368;11.068;2023-01-29T13:42:59;98583.94;;;4.36;50.80
3812;BME280;1921;49.368;11.068;2023-01-29T13:45:42;98516.09;;;3.88;51.89
3812;BME280;1921;49.368;11.068;2023-01-29T13:48:28;98549.56;;;4.00;52.21
3812;BME280;1921;49.368;11.068;2023-01-29T13:51:01;98518.53;;;3.78;52.20
3812;BME280;1921;49.368;11.068;2023-01-29T13:53:34;98584.06;;;3.99;53.15
3812;BME280;1921;49.368;11.068;2023-01-29T13:56:41;98518.44;;;3.56;53.98
3812;BME280;1921;49.368;11.068;2023-01-29T13:59:47;98538.19;;;3.68;53.09
3812;BME280;1921;49.368;11.068;2023-01-29T14:02:25;98555.56;;;3.77;52.82
3812;BME280;1921;49.368;11.068;2023-01-29T14:07:50;98545.75;;;3.82;52.41
3812;BME280;1921;49.368;11.068;2023-01-29T14:10:22;98548.00;;;3.87;53.58
3812;BME280;1921;49.368;11.068;2023-01-29T14:15:45;98582.03;;;3.92;53.72
3812;BME280;1921;49.368;11.068;2023-01-29T14:18:32;98539.66;;;3.83;54.10
3812;BME280;1921;49.368;11.068;2023-01-29T14:21:20;98464.41;;;3.54;54.29
3812;BME280;1921;49.368;11.068;2023-01-29T14:23:54;98492.78;;;3.30;55.52
3812;BME280;1921;49.368;11.068;2023-01-29T14:26:55;98539.44;;;3.86;53.78
3812;BME280;1921;49.368;11.068;2023-01-29T14:29:28;98545.38;;;4.11;55.40
3812;BME280;1921;49.368;11.068;2023-01-29T14:34:35;98539.53;;;4.20;52.84
3812;BME280;1921;49.368;11.068;2023-01-29T14:39:57;98542.16;;;4.42;53.60
3812;BME280;1921;49.368;11.068;2023-01-29T14:43:02;98557.69;;;4.53;53.45
3812;BME280;1921;49.368;11.068;2023-01-29T14:45:34;98507.22;;;4.03;52.31
3812;BME280;1921;49.368;11.068;2023-01-29T14:48:36;98547.97;;;4.22;53.23
3812;BME280;1921;49.368;11.068;2023-01-29T14:51:16;98529.53;;;4.04;53.24
3812;BME280;1921;49.368;11.068;2023-01-29T14:56:51;98537.84;;;3.72;54.10
3812;BME280;1921;49.368;11.068;2023-01-29T14:59:36;98545.25;;;3.77;55.30
3812;BME280;1921;49.368;11.068;2023-01-29T15:02:21;98562.63;;;3.75;54.59
3812;BME280;1921;49.368;11.068;2023-01-29T15:04:55;98469.03;;;3.14;55.74
3812;BME280;1921;49.368;11.068;2023-01-29T15:10:13;98548.88;;;3.27;55.65
3812;BME280;1921;49.368;11.068;2023-01-29T15:13:32;98541.00;;;3.04;56.68
3812;BME280;1921;49.368;11.068;2023-01-29T15:16:11;98411.50;;;2.03;56.80
3812;BME280;1921;49.368;11.068;2023-01-29T15:18:41;98483.31;;;2.45;57.01
3812;BME280;1921;49.368;11.068;2023-01-29T15:21:17;98544.56;;;2.65;57.41
3812;BME280;1921;49.368;11.068;2023-01-29T15:23:44;98485.78;;;2.21;57.84
3812;BME280;1921;49.368;11.068;2023-01-29T15:26:21;98476.03;;;2.13;58.40
3812;BME280;1921;49.368;11.068;2023-01-29T15:28:59;98495.47;;;2.17;59.17